Time;durP1;ratioP1;P1;durP2;ratioP2;P2;SDS_P1;SDS_P2;PMS_P1;PMS_P2;Temp;Humidity;BMP_temperature;BMP_pressure;BME280_temperature;BME280_humidity;BME280_pressure;Samples;Min_cycle;Max_cycle;Signal;HPM_P1;HPM_P2
2021/09/29 00:01:47;;;;;;;9.93;2.28;;;13.80;94.90;;;11.84;99.51;100729.44;5085634;28;20115;-71
2021/09/29 00:04:14;;;;;;;7.88;2.40;;;13.80;95.00;;;11.89;99.63;100725.16;5087262;28;20067;-71
2021/09/29 00:06:41;;;;;;;10.75;2.30;;;13.80;95.10;;;11.94;99.24;100719.13;5087222;28;20052;-71
2021/09/29 00:09:09;;;;;;;9.63;1.88;;;13.80;95.00;;;11.87;99.36;100718.16;5087075;28;20052;-71
2021/09/29 00:11:36;;;;;;;8.55;2.00;;;13.80;94.90;;;11.90;99.19;100715.09;5086484;28;20139;-71
2021/09/29 00:14:05;;;;;;;7.90;2.25;;;13.80;95.00;;;11.89;99.03;100724.28;5086590;28;20051;-71
2021/09/29 00:16:32;;;;;;;7.75;2.00;;;13.80;94.90;;;11.86;99.48;100721.91;5087476;28;20040;-71
2021/09/29 00:19:00;;;;;;;9.38;2.00;;;13.80;94.90;;;11.86;99.20;100713.72;5090915;28;20093;-71
2021/09/29 00:21:27;;;;;;;6.38;1.92;;;13.80;94.90;;;11.74;100.00;100711.47;5090300;28;20130;-71
2021/09/29 00:23:54;;;;;;;8.55;1.90;;;13.80;94.90;;;11.72;100.00;100707.25;5091081;28;20040;-71
2021/09/29 00:26:22;;;;;;;8.07;1.85;;;13.80;95.00;;;11.68;100.00;100701.31;5091234;28;20048;-71
2021/09/29 00:28:49;;;;;;;6.18;2.22;;;13.80;95.00;;;11.66;100.00;100702.56;5090423;28;20131;-71
2021/09/29 00:31:26;;;;;;;5.30;2.25;;;13.80;95.10;;;11.67;100.00;100699.66;5090455;28;20498;-71
2021/09/29 00:34:00;;;;;;;3.97;1.63;;;13.70;95.10;;;11.69;100.00;100694.84;5090752;28;20066;-71
2021/09/29 00:36:27;;;;;;;11.30;2.03;;;13.70;95.10;;;11.69;100.00;100685.78;5090889;28;20120;-71
2021/09/29 00:38:55;;;;;;;9.02;2.05;;;13.70;95.20;;;11.73;100.00;100682.53;5090633;28;20044;-70
2021/09/29 00:41:22;;;;;;;6.00;1.80;;;13.70;95.20;;;11.73;100.00;100681.69;5089096;28;20094;-71
2021/09/29 00:43:49;;;;;;;6.78;2.20;;;13.70;95.30;;;11.69;100.00;100674.88;5090920;28;20075;-71
2021/09/29 00:46:18;;;;;;;6.95;1.85;;;13.70;95.30;;;11.64;99.84;100672.75;5090364;28;20805;-71
2021/09/29 00:48:46;;;;;;;8.15;1.90;;;13.70;95.30;;;11.65;100.00;100677.19;5090397;28;20063;-71
2021/09/29 00:51:14;;;;;;;8.88;2.00;;;13.70;95.20;;;11.68;99.71;100668.59;5089412;28;20063;-71
2021/09/29 00:53:41;;;;;;;10.65;1.90;;;13.70;95.30;;;11.70;100.00;100674.72;5090739;28;20104;-71
2021/09/29 00:56:09;;;;;;;6.05;1.92;;;13.70;95.30;;;11.66;99.71;100662.50;5090316;28;20759;-71
2021/09/29 00:58:37;;;;;;;6.05;2.03;;;13.60;95.20;;;11.65;99.75;100668.13;5090164;28;20407;-71
2021/09/29 01:01:04;;;;;;;5.85;1.88;;;13.60;95.20;;;11.63;99.85;100660.16;5089392;28;20064;-71
2021/09/29 01:03:33;;;;;;;6.40;1.75;;;13.60;95.20;;;11.58;99.90;100650.84;5090272;28;20055;-71
2021/09/29 01:06:11;;;;;;;8.85;2.22;;;13.60;95.20;;;11.51;100.00;100653.47;5087141;28;20041;-74
2021/09/29 01:08:44;;;;;;;9.32;1.92;;;13.60;95.20;;;11.53;100.00;100648.69;5089425;28;20047;-73
2021/09/29 01:11:20;;;;;;;9.15;2.30;;;13.60;95.30;;;11.54;100.00;100650.38;5089459;28;20043;-74
2021/09/29 01:14:00;;;;;;;9.60;2.30;;;13.60;95.40;;;11.52;100.00;100642.38;5090071;28;20097;-73
2021/09/29 01:16:31;;;;;;;8.02;1.92;;;13.50;95.40;;;11.52;100.00;100644.28;5068834;28;20052;-73
2021/09/29 01:19:01;;;;;;;6.97;2.00;;;13.60;95.40;;;11.54;100.00;100637.59;5069788;28;20055;-74
2021/09/29 01:21:43;;;;;;;9.93;1.80;;;13.60;95.40;;;11.54;100.00;100636.75;5087884;28;20039;-74
2021/09/29 01:24:23;;;;;;;8.55;2.53;;;13.60;95.50;;;11.49;100.00;100637.31;5089183;28;20095;-74
2021/09/29 01:26:52;;;;;;;5.75;2.42;;;13.50;95.40;;;11.42;100.00;100630.06;5089916;28;20048;-73
2021/09/29 01:29:22;;;;;;;7.30;2.00;;;13.50;95.50;;;11.40;100.00;100632.13;5088359;28;20070;-73
2021/09/29 01:31:52;;;;;;;7.60;2.17;;;13.50;95.60;;;11.42;100.00;100624.63;5088611;28;20051;-73
2021/09/29 01:34:20;;;;;;;7.38;1.90;;;13.50;95.60;;;11.41;100.00;100617.50;5089489;28;20086;-74
2021/09/29 01:36:48;;;;;;;5.85;2.13;;;13.50;95.70;;;11.39;100.00;100616.84;5089449;28;20044;-73
2021/09/29 01:39:21;;;;;;;6.38;1.80;;;13.50;95.60;;;11.39;100.00;100609.50;5089345;28;20529;-73
2021/09/29 01:41:48;;;;;;;6.03;2.05;;;13.50;95.60;;;11.40;100.00;100604.88;5087678;28;20426;-73
2021/09/29 01:44:17;;;;;;;8.30;2.25;;;13.50;95.60;;;11.40;100.00;100604.88;5089405;28;20086;-74
2021/09/29 01:46:45;;;;;;;7.95;2.35;;;13.50;95.60;;;11.39;100.00;100603.22;5089365;28;20538;-73
2021/09/29 01:49:20;;;;;;;7.47;2.40;;;13.50;95.60;;;11.41;100.00;100591.06;5088802;28;20124;-73
2021/09/29 01:51:51;;;;;;;7.40;2.30;;;13.40;95.50;;;11.39;100.00;100589.59;5087931;28;20050;-73
2021/09/29 01:54:21;;;;;;;;;;;13.40;95.50;;;11.40;100.00;100588.53;5089698;28;20491;-73
2021/09/29 01:56:49;;;;;;;8.25;2.42;;;13.40;95.60;;;11.34;100.00;100580.06;5087936;28;20399;-73
2021/09/29 01:59:18;;;;;;;8.60;2.20;;;13.40;95.50;;;11.32;100.00;100576.69;5086898;28;20477;-73
2021/09/29 02:01:56;;;;;;;7.70;2.50;;;13.40;95.60;;;11.27;100.00;100576.44;5088665;28;20044;-73
2021/09/29 02:04:23;;;;;;;5.70;2.00;;;13.40;95.70;;;11.32;100.00;100573.97;5089039;28;20641;-74
2021/09/29 02:06:53;;;;;;;8.63;2.60;;;13.40;95.60;;;11.32;100.00;100564.94;5086800;28;20074;-73
2021/09/29 02:09:24;;;;;;;6.75;2.20;;;13.40;95.60;;;11.26;100.00;100561.09;5088117;28;20044;-74
2021/09/29 02:11:53;;;;;;;6.55;1.98;;;13.40;95.70;;;11.28;100.00;100563.63;5083144;28;20470;-73
2021/09/29 02:14:23;;;;;;;11.48;2.15;;;13.40;95.80;;;11.35;100.00;100559.97;5068567;28;20049;-73
2021/09/29 02:16:53;;;;;;;7.78;2.15;;;13.40;95.90;;;11.33;100.00;100553.88;5068562;28;20044;-74
2021/09/29 02:19:22;;;;;;;8.35;2.58;;;13.40;95.80;;;11.40;100.00;100547.66;5067617;28;20056;-73
2021/09/29 02:21:51;;;;;;;6.47;2.28;;;13.30;95.80;;;11.42;100.00;100551.03;5088575;28;20132;-74
2021/09/29 02:24:19;;;;;;;5.43;2.10;;;13.40;95.90;;;11.43;99.83;100552.75;5086896;28;20053;-73
2021/09/29 02:26:46;;;;;;;6.07;1.98;;;13.40;95.80;;;11.41;100.00;100552.09;5088210;28;20044;-73
2021/09/29 02:29:16;;;;;;;6.95;2.05;;;13.40;95.80;;;11.39;100.00;100544.09;5103714;28;20059;-73
2021/09/29 02:31:46;;;;;;;7.18;2.05;;;13.40;95.90;;;11.45;100.00;100546.06;5087958;28;20044;-73
2021/09/29 02:34:14;;;;;;;7.63;2.00;;;13.40;96.00;;;11.49;100.00;100538.34;5088424;28;20058;-74
2021/09/29 02:36:41;;;;;;;6.38;1.88;;;13.40;96.10;;;11.51;100.00;100544.47;5088614;28;20048;-73
2021/09/29 02:39:09;;;;;;;6.43;2.10;;;13.40;96.00;;;11.55;100.00;100543.88;5086626;28;20786;-73
2021/09/29 02:41:37;;;;;;;11.43;2.00;;;13.40;96.10;;;11.63;100.00;100539.34;5084304;28;20055;-73
2021/09/29 02:44:08;;;;;;;5.25;2.28;;;13.50;96.30;;;11.72;100.00;100540.94;5088326;28;20039;-73
2021/09/29 02:46:37;;;;;;;8.35;2.00;;;13.50;96.20;;;11.77;99.51;100541.22;5086678;28;20048;-74
2021/09/29 02:49:06;;;;;;;8.15;2.00;;;13.50;96.20;;;11.77;99.19;100540.38;5087848;28;20510;-74
2021/09/29 02:51:33;;;;;;;6.78;2.22;;;13.50;96.10;;;11.82;99.22;100533.31;5086574;28;20044;-73
2021/09/29 02:54:01;;;;;;;8.80;2.17;;;13.60;96.10;;;11.88;98.68;100532.53;5088194;28;20085;-73
2021/09/29 02:56:29;;;;;;;8.60;2.10;;;13.60;96.10;;;11.93;98.44;100531.97;5086510;28;20043;-74
2021/09/29 02:58:57;;;;;;;5.32;2.47;;;13.60;96.00;;;11.94;98.22;100530.94;5087907;28;20043;-74
2021/09/29 03:01:25;;;;;;;9.63;2.67;;;13.70;96.10;;;11.93;97.98;100523.78;5085483;28;20062;-73
2021/09/29 03:03:52;;;;;;;9.23;2.42;;;13.70;96.00;;;12.01;98.01;100520.94;5087665;28;20126;-73
2021/09/29 03:06:21;;;;;;;5.68;2.40;;;13.70;95.90;;;12.03;97.52;100524.34;5086823;28;20032;-73
2021/09/29 03:08:48;;;;;;;11.93;3.10;;;13.70;95.90;;;12.06;97.51;100528.56;5084183;28;20042;-73
2021/09/29 03:11:16;;;;;;;14.13;4.07;;;13.80;95.70;;;12.10;96.96;100522.50;5086840;28;20495;-73
2021/09/29 03:13:45;;;;;;;9.32;3.50;;;13.80;95.70;;;12.15;96.95;100516.47;5086517;28;20048;-73
2021/09/29 03:16:12;;;;;;;10.50;2.55;;;13.80;95.50;;;12.16;96.60;100517.31;5087736;28;20044;-73
2021/09/29 03:18:39;;;;;;;7.40;3.28;;;13.90;95.60;;;12.17;96.50;100516.28;5086704;28;20079;-73
2021/09/29 03:21:06;;;;;;;14.80;2.72;;;13.90;95.40;;;12.19;96.81;100525.97;5086405;28;20035;-73
2021/09/29 03:23:35;;;;;;;8.85;3.03;;;13.90;95.30;;;12.17;96.46;100519.00;5087583;28;20048;-71
2021/09/29 03:26:03;;;;;;;11.00;3.00;;;13.90;95.00;;;12.19;96.49;100517.78;5087273;28;20050;-73
2021/09/29 03:28:30;;;;;;;8.63;2.65;;;13.90;95.20;;;12.20;96.07;100518.59;5086367;28;20141;-74
2021/09/29 03:30:58;;;;;;;10.63;3.08;;;13.90;95.10;;;12.23;96.29;100515.50;5085673;28;20169;-73
2021/09/29 03:33:25;;;;;;;6.35;3.20;;;14.00;95.00;;;12.27;96.08;100514.06;5086023;28;20068;-73
2021/09/29 03:35:53;;;;;;;8.55;3.10;;;14.00;94.80;;;12.21;95.80;100515.69;5087191;28;20852;-73
2021/09/29 03:38:20;;;;;;;9.38;3.08;;;14.00;94.80;;;12.22;95.76;100511.94;5085193;28;20094;-73
2021/09/29 03:40:49;;;;;;;5.63;2.80;;;14.00;94.70;;;12.21;96.15;100503.94;5086504;28;20035;-73
2021/09/29 03:43:19;;;;;;;9.43;3.00;;;14.00;94.60;;;12.25;95.63;100499.78;5084630;28;20105;-73
2021/09/29 03:45:46;;;;;;;8.98;2.97;;;14.00;94.60;;;12.30;95.50;100491.84;5086759;28;20166;-73
2021/09/29 03:48:13;;;;;;;9.82;3.15;;;14.00;94.60;;;12.27;94.46;100492.22;5085114;28;20711;-74
2021/09/29 03:50:41;;;;;;;10.00;2.83;;;14.10;94.40;;;12.33;94.63;100496.91;5085471;28;20074;-74
2021/09/29 03:53:08;;;;;;;9.25;3.00;;;14.10;94.20;;;12.35;94.52;100503.00;5086389;28;20068;-74
2021/09/29 03:55:36;;;;;;;8.27;3.35;;;14.10;94.30;;;12.34;94.19;100498.59;5085261;28;20089;-73
2021/09/29 03:58:04;;;;;;;10.93;2.90;;;14.10;93.80;;;12.38;93.54;100482.69;5086582;28;20067;-73
2021/09/29 04:00:32;;;;;;;8.45;2.65;;;14.10;93.60;;;12.39;93.57;100485.19;5086329;28;20055;-71
2021/09/29 04:02:59;;;;;;;8.63;2.38;;;14.10;93.80;;;12.41;93.65;100482.25;5102217;28;20063;-71
2021/09/29 04:05:26;;;;;;;6.65;2.33;;;14.10;93.60;;;12.42;93.70;100484.81;5086802;28;20101;-71
2021/09/29 04:07:54;;;;;;;9.73;3.03;;;14.20;93.70;;;12.43;93.40;100481.03;5087118;28;20051;-71
2021/09/29 04:10:23;;;;;;;10.65;2.60;;;14.20;93.60;;;12.45;93.25;100472.63;5085204;28;20040;-71
2021/09/29 04:12:50;;;;;;;9.98;3.17;;;14.20;93.50;;;12.44;92.83;100480.00;5086086;28;20047;-71
2021/09/29 04:15:19;;;;;;;13.82;3.55;;;14.20;93.00;;;12.45;93.20;100473.50;5086831;28;20032;-70
2021/09/29 04:17:46;;;;;;;8.25;2.33;;;14.20;93.30;;;12.43;93.36;100475.59;5086848;28;20077;-71
2021/09/29 04:20:14;;;;;;;11.63;3.08;;;14.20;93.30;;;12.46;92.76;100472.44;5097972;28;20127;-72
2021/09/29 04:22:42;;;;;;;7.82;2.88;;;14.20;92.60;;;12.44;92.69;100477.25;5066737;28;20559;-71
2021/09/29 04:25:11;;;;;;;9.18;2.35;;;14.20;93.00;;;12.43;92.35;100472.84;5081870;28;20076;-71
2021/09/29 04:27:38;;;;;;;8.10;2.50;;;14.20;93.00;;;12.43;93.32;100470.13;5066315;28;20120;-71
2021/09/29 04:30:07;;;;;;;9.23;2.42;;;14.20;92.90;;;12.43;93.60;100470.13;5088205;22;20048;-70
2021/09/29 04:32:36;;;;;;;7.85;2.47;;;14.20;92.80;;;12.39;93.37;100468.81;5049534;28;20079;-71
2021/09/29 04:35:03;;;;;;;5.70;2.55;;;14.20;92.70;;;12.37;93.15;100465.44;5067550;28;20076;-70
2021/09/29 04:37:30;;;;;;;8.80;2.40;;;14.20;92.50;;;12.38;92.57;100461.69;5049345;28;20048;-70
2021/09/29 04:39:58;;;;;;;8.15;2.60;;;14.20;92.60;;;12.37;92.67;100454.53;5042566;28;20080;-71
2021/09/29 04:42:25;;;;;;;8.50;2.53;;;14.20;92.60;;;12.36;92.98;100455.59;5047625;28;20048;-71
2021/09/29 04:44:53;;;;;;;5.88;2.50;;;14.20;92.50;;;12.35;92.81;100462.06;5047657;28;20110;-70
2021/09/29 04:47:20;;;;;;;8.85;3.20;;;14.20;92.50;;;12.35;92.52;100461.22;5046636;28;20045;-71
2021/09/29 04:49:49;;;;;;;8.18;2.55;;;14.20;92.40;;;12.31;92.67;100466.22;5045231;28;20080;-70
2021/09/29 04:52:17;;;;;;;8.95;2.60;;;14.20;92.40;;;12.26;92.98;100458.66;5029465;28;20107;-70
2021/09/29 04:54:44;;;;;;;13.00;2.78;;;14.20;92.30;;;12.29;92.90;100468.31;5047535;28;20076;-70
2021/09/29 04:57:11;;;;;;;6.35;2.20;;;14.20;92.30;;;12.26;93.24;100463.25;5029795;28;20068;-71
2021/09/29 04:59:39;;;;;;;7.10;2.35;;;14.20;92.40;;;12.28;93.25;100472.06;5044919;28;20041;-71
2021/09/29 05:02:08;;;;;;;6.95;2.35;;;14.20;92.30;;;12.29;93.13;100468.31;5047467;28;20098;-71
2021/09/29 05:04:35;;;;;;;8.20;2.75;;;14.10;92.30;;;12.24;93.03;100460.75;5030959;28;20047;-70
2021/09/29 05:07:05;;;;;;;8.98;2.53;;;14.10;92.30;;;12.24;93.16;100459.88;5051287;28;20049;-70
2021/09/29 05:09:33;;;;;;;8.27;2.60;;;14.10;92.40;;;12.20;93.34;100458.59;5040107;28;20156;-69
2021/09/29 05:12:05;;;;;;;7.53;2.47;;;14.10;92.30;;;12.17;93.31;100459.84;5049357;28;20056;-69
2021/09/29 05:14:32;;;;;;;7.43;2.13;;;14.10;92.30;;;12.17;93.80;100448.09;5044135;28;20539;-69
2021/09/29 05:17:00;;;;;;;7.68;2.50;;;14.10;92.50;;;12.19;93.86;100446.00;5029727;28;20118;-69
2021/09/29 05:19:27;;;;;;;8.35;2.60;;;14.10;92.50;;;12.18;93.55;100444.28;5011290;28;20132;-69
2021/09/29 05:21:54;;;;;;;6.18;2.53;;;14.10;92.50;;;12.11;93.22;100449.72;5067499;28;20102;-69
2021/09/29 05:24:23;;;;;;;10.60;2.78;;;14.10;92.40;;;12.11;93.44;100445.09;5070703;28;20144;-69
2021/09/29 05:26:50;;;;;;;6.93;2.60;;;14.00;92.40;;;12.11;94.47;100441.53;5069801;28;20052;-69
2021/09/29 05:29:19;;;;;;;7.25;2.80;;;14.00;92.50;;;12.12;94.02;100446.75;5030432;28;20606;-69
2021/09/29 05:31:47;;;;;;;9.65;2.75;;;14.00;92.60;;;12.11;94.12;100439.63;5030516;28;20068;-69
2021/09/29 05:34:14;;;;;;;7.13;2.40;;;14.00;92.60;;;12.16;93.85;100438.19;5050542;28;20061;-69
2021/09/29 05:36:45;;;;;;;6.45;2.60;;;14.00;92.60;;;12.16;94.18;100430.00;5050387;28;20471;-69
2021/09/29 05:39:13;;;;;;;8.40;2.67;;;14.00;92.60;;;12.20;94.20;100431.28;5049862;28;20067;-69
2021/09/29 05:41:41;;;;;;;10.82;2.80;;;14.00;92.70;;;12.23;93.97;100431.75;5048143;28;20057;-69
2021/09/29 05:44:09;;;;;;;7.05;3.00;;;14.00;92.80;;;12.29;93.99;100427.38;5050150;28;20044;-69
2021/09/29 05:46:36;;;;;;;8.63;2.83;;;14.10;92.90;;;12.29;93.45;100420.03;5032206;28;20128;-69
2021/09/29 05:49:04;;;;;;;7.35;2.90;;;14.10;92.60;;;12.38;93.70;100423.47;5037054;28;20057;-69
2021/09/29 05:51:31;;;;;;;6.90;3.08;;;14.10;93.00;;;12.42;93.47;100416.56;5044827;28;20041;-69
2021/09/29 05:53:59;;;;;;;7.57;2.63;;;14.10;93.10;;;12.47;93.62;100415.97;5070154;28;20048;-69
2021/09/29 05:56:26;;;;;;;8.05;2.95;;;14.10;93.00;;;12.50;92.74;100413.69;5069958;28;20531;-69
2021/09/29 05:58:55;;;;;;;6.07;2.47;;;14.10;92.80;;;12.56;92.79;100413.94;5069574;28;20044;-69
2021/09/29 06:01:22;;;;;;;9.00;2.90;;;14.20;93.10;;;12.59;93.12;100408.09;5051223;28;20040;-69
2021/09/29 06:03:49;;;;;;;8.05;2.63;;;14.20;93.10;;;12.65;92.94;100404.53;5050179;28;20148;-69
2021/09/29 06:06:17;;;;;;;8.80;2.80;;;14.30;93.20;;;12.71;92.05;100407.28;5049736;28;20130;-69
2021/09/29 06:08:44;;;;;;;8.02;2.83;;;14.30;93.00;;;12.79;92.63;100413.66;5049507;28;20071;-69
2021/09/29 06:11:11;;;;;;;9.45;2.50;;;14.40;93.00;;;12.84;92.01;100412.00;5047958;28;20130;-69
2021/09/29 06:13:38;;;;;;;7.88;2.60;;;14.40;93.00;;;12.91;91.94;100410.16;5049569;28;20418;-69
2021/09/29 06:16:09;;;;;;;14.02;3.30;;;14.40;92.70;;;13.00;91.74;100413.53;5049299;28;20061;-69
2021/09/29 06:18:37;;;;;;;8.75;2.65;;;14.50;92.90;;;13.05;93.01;100412.94;5032389;28;20611;-69
2021/09/29 06:21:07;;;;;;;7.50;2.60;;;14.50;93.20;;;13.11;92.36;100402.03;5056205;28;20045;-69
2021/09/29 06:23:35;;;;;;;9.70;3.00;;;14.60;93.30;;;13.19;92.69;100403.72;5068122;28;20073;-69
2021/09/29 06:26:04;;;;;;;7.05;2.42;;;14.60;93.00;;;13.18;93.45;100413.00;5069271;28;20048;-69
2021/09/29 06:28:34;;;;;;;7.07;2.60;;;14.70;93.30;;;13.22;92.65;100402.50;5068913;28;20041;-69
2021/09/29 06:31:02;;;;;;;7.55;2.67;;;14.80;93.20;;;13.23;91.26;100402.31;5064315;28;20052;-69
2021/09/29 06:33:31;;;;;;;5.82;2.53;;;14.70;92.70;;;13.23;90.82;100401.44;5056156;28;20041;-69
2021/09/29 06:35:58;;;;;;;8.82;2.53;;;14.70;92.20;;;13.25;92.02;100413.88;5049505;28;20087;-69
2021/09/29 06:38:25;;;;;;;9.57;2.67;;;14.80;92.40;;;13.22;92.25;100425.19;5048841;28;20049;-69
2021/09/29 06:40:53;;;;;;;5.65;2.50;;;14.80;92.50;;;13.21;92.43;100423.53;5057453;28;20083;-69
2021/09/29 06:43:20;;;;;;;10.43;2.53;;;14.90;92.70;;;13.19;93.70;100417.41;5069331;28;20564;-69
2021/09/29 06:45:48;;;;;;;8.90;2.50;;;14.90;92.90;;;13.12;94.68;100419.28;5069011;28;20119;-71
2021/09/29 06:48:16;;;;;;;8.32;2.45;;;14.90;93.10;;;13.12;95.61;100427.47;5068901;28;20044;-70
2021/09/29 06:50:45;;;;;;;7.78;2.75;;;14.90;93.20;;;13.13;97.22;100415.50;5055129;28;20692;-70
2021/09/29 06:53:20;;;;;;;8.18;2.55;;;14.90;93.50;;;13.14;97.60;100419.91;5031043;28;20079;-71
2021/09/29 06:55:48;;;;;;;8.35;2.58;;;14.90;93.90;;;13.17;98.04;100415.94;5049000;28;20052;-70
2021/09/29 06:58:16;;;;;;;12.38;3.15;;;15.00;94.00;;;13.18;98.87;100407.53;5048679;28;20072;-72
2021/09/29 07:00:44;;;;;;;10.60;2.90;;;15.00;94.20;;;13.20;99.24;100410.91;5037454;28;20048;-71
2021/09/29 07:03:14;;;;;;;11.27;3.70;;;15.00;94.40;;;13.19;98.14;100403.72;5050756;28;20136;-71
2021/09/29 07:05:41;;;;;;;10.35;2.78;;;15.00;94.30;;;13.16;98.36;100400.59;5050887;28;20791;-71
2021/09/29 07:08:10;;;;;;;9.52;2.83;;;15.00;94.40;;;13.08;98.90;100407.09;5068397;28;20072;-71
2021/09/29 07:10:38;;;;;;;8.70;2.97;;;15.00;94.50;;;13.05;100.00;100429.34;5054468;28;20132;-70
2021/09/29 07:13:05;;;;;;;6.10;2.67;;;15.00;94.80;;;13.06;100.00;100431.00;5030792;28;20060;-69
2021/09/29 07:15:34;;;;;;;7.43;2.67;;;15.00;94.80;;;13.05;100.00;100418.41;5048592;28;20041;-69
2021/09/29 07:18:01;;;;;;;6.47;3.05;;;15.00;95.00;;;13.09;100.00;100416.94;5040622;28;20076;-70
2021/09/29 07:20:29;;;;;;;9.82;2.80;;;15.00;95.20;;;13.08;100.00;100409.81;5038663;28;20120;-69
2021/09/29 07:22:58;;;;;;;6.95;2.50;;;15.00;95.20;;;13.07;100.00;100408.13;5048590;28;20051;-70
2021/09/29 07:25:28;;;;;;;11.50;3.63;;;15.00;95.30;;;13.03;100.00;100406.84;5048145;28;20040;-69
2021/09/29 07:27:57;;;;;;;9.97;3.03;;;15.00;95.30;;;13.03;100.00;100399.47;5047401;28;20123;-69
2021/09/29 07:30:24;;;;;;;7.25;2.65;;;15.00;95.50;;;13.04;100.00;100397.56;5035219;28;20041;-70
2021/09/29 07:32:52;;;;;;;12.43;3.70;;;15.00;95.70;;;13.10;100.00;100391.31;5048454;28;20075;-69
2021/09/29 07:35:20;;;;;;;11.20;3.35;;;15.00;95.60;;;13.09;100.00;100392.34;5048179;28;20118;-69
2021/09/29 07:37:48;;;;;;;8.43;3.10;;;15.00;95.80;;;13.11;100.00;100395.72;5048104;28;20073;-70
2021/09/29 07:40:15;;;;;;;8.35;2.90;;;15.00;95.80;;;13.13;100.00;100399.09;5044979;28;20512;-70
2021/09/29 07:42:44;;;;;;;8.40;3.10;;;15.00;96.00;;;13.10;100.00;100392.16;5047934;28;20040;-75
2021/09/29 07:45:12;;;;;;;7.63;3.00;;;15.00;96.10;;;13.12;100.00;100391.97;5046190;28;20119;-70
2021/09/29 07:47:39;;;;;;;8.82;3.00;;;15.00;96.20;;;13.17;100.00;100388.59;5048208;28;20063;-70
2021/09/29 07:50:12;;;;;;;5.90;2.60;;;15.00;96.50;;;13.20;100.00;100380.84;5028619;28;20737;-70
2021/09/29 07:52:40;;;;;;;7.03;2.83;;;15.00;96.60;;;13.26;100.00;100395.56;5047893;28;20041;-70
2021/09/29 07:55:09;;;;;;;9.68;2.83;;;15.00;97.00;;;13.36;100.00;100397.94;5047624;28;20055;-70
2021/09/29 07:57:36;;;;;;;9.05;2.92;;;15.00;97.10;;;13.41;100.00;100407.22;5046142;28;20053;-70
2021/09/29 08:00:07;;;;;;;6.20;2.92;;;15.10;97.20;;;13.42;100.00;100408.03;5043865;28;20156;-71
2021/09/29 08:02:40;;;;;;;8.18;2.80;;;15.10;97.40;;;13.36;100.00;100398.78;5027885;28;20418;-71
2021/09/29 08:05:09;;;;;;;11.82;3.40;;;15.10;97.40;;;13.33;100.00;100392.88;5027852;28;20049;-71
2021/09/29 08:07:38;;;;;;;10.68;3.28;;;15.10;97.40;;;13.37;100.00;100389.53;5027887;28;20679;-71
2021/09/29 08:10:06;;;;;;;8.55;2.85;;;15.10;97.40;;;13.38;100.00;100379.44;5033359;28;20122;-71
2021/09/29 08:12:34;;;;;;;11.65;3.08;;;15.10;97.40;;;13.40;100.00;100382.81;5047763;28;20038;-71
2021/09/29 08:15:01;;;;;;;9.77;3.20;;;15.10;97.40;;;13.39;100.00;100387.44;5046035;28;20057;-71
2021/09/29 08:17:30;;;;;;;7.13;2.78;;;15.10;97.50;;;13.40;100.00;100377.34;5047739;28;20052;-71
2021/09/29 08:19:57;;;;;;;8.40;3.03;;;15.20;97.50;;;13.42;100.00;100369.78;5045087;28;20068;-71
2021/09/29 08:22:25;;;;;;;9.07;3.20;;;15.20;97.70;;;13.45;100.00;100370.22;5047514;28;20501;-71
2021/09/29 08:24:58;;;;;;;9.20;3.22;;;15.20;97.80;;;13.52;100.00;100370.25;5047528;28;20098;-70
2021/09/29 08:27:32;;;;;;;7.45;2.85;;;15.10;98.40;;;13.54;100.00;100373.59;5046503;28;20091;-73
2021/09/29 08:32:51;;;;;;;9.20;3.25;;;15.20;98.10;;;13.47;100.00;100370.84;5028795;28;20053;-71
2021/09/29 08:35:27;;;;;;;8.48;3.10;;;15.20;98.10;;;13.48;100.00;100366.25;5047135;28;20152;-71
2021/09/29 08:38:00;;;;;;;10.30;2.97;;;15.20;98.10;;;13.50;100.00;100361.41;5042454;28;20084;-70
2021/09/29 08:40:40;;;;;;;10.52;3.33;;;15.20;98.00;;;13.48;100.00;100363.50;5021557;28;20068;-71
2021/09/29 08:43:16;;;;;;;8.57;3.10;;;15.20;98.20;;;13.51;100.00;100363.06;5044583;28;20068;-71
2021/09/29 08:45:52;;;;;;;11.30;3.42;;;15.20;98.20;;;13.47;100.00;100367.28;5031104;28;20115;-70
2021/09/29 08:48:29;;;;;;;10.60;3.80;;;15.20;98.50;;;13.49;100.00;100367.91;5031559;28;20783;-71
2021/09/29 08:53:56;;;;;;;9.40;2.95;;;15.20;98.40;;;13.51;100.00;100363.06;5030131;28;20053;-71
2021/09/29 09:16:08;;;;;;;7.55;3.20;;;15.30;98.60;;;13.38;100.00;100365.78;5038727;28;20069;-71
2021/09/29 09:18:35;;;;;;;14.75;3.22;;;15.30;98.50;;;13.39;100.00;100364.75;5033812;28;20049;-71
2021/09/29 09:21:16;;;;;;;7.20;3.13;;;15.30;98.60;;;13.33;100.00;100368.28;5044004;28;20053;-71
2021/09/29 09:23:45;;;;;;;6.60;2.93;;;15.30;98.90;;;13.34;100.00;100359.03;5050602;28;20051;-71
2021/09/29 09:26:15;;;;;;;9.30;3.40;;;15.30;99.00;;;13.38;100.00;100369.34;5047905;28;20045;-70
2021/09/29 09:28:44;;;;;;;11.57;3.53;;;15.30;99.00;;;13.43;100.00;100368.75;5049336;28;20520;-70
2021/09/29 09:31:15;;;;;;;7.35;3.20;;;15.30;99.40;;;13.54;100.00;100372.78;5047283;28;20368;-71
2021/09/29 09:33:56;;;;;;;8.45;3.20;;;15.30;99.80;;;13.61;100.00;100369.00;5032174;28;20088;-71
2021/09/29 09:36:35;;;;;;;9.80;3.30;;;15.30;99.80;;;13.62;100.00;100375.28;5050213;28;20049;-71
2021/09/29 09:39:08;;;;;;;10.40;3.33;;;15.30;99.50;;;13.60;100.00;100377.41;5045027;28;20045;-71
2021/09/29 09:41:39;;;;;;;8.00;3.15;;;15.30;99.80;;;13.51;100.00;100374.00;5050393;28;20045;-71
2021/09/29 09:44:07;;;;;;;9.50;3.55;;;15.30;99.80;;;13.42;100.00;100380.72;5034736;28;20071;-71
2021/09/29 09:46:34;;;;;;;10.82;3.78;;;15.30;99.50;;;13.43;100.00;100377.78;5044824;28;20071;-70
2021/09/29 09:49:05;;;;;;;8.20;3.28;;;15.30;99.60;;;13.39;100.00;100381.13;5041022;28;20800;-71
2021/09/29 09:51:46;;;;;;;;;;;15.30;99.80;;;13.38;100.00;100390.38;5035738;28;20433;-71
2021/09/29 09:54:14;;;;;;;8.70;3.42;;;15.30;99.40;;;13.33;100.00;100393.75;5039229;28;19939;-71
2021/09/29 09:56:45;;;;;;;7.30;2.85;;;15.30;99.60;;;13.35;100.00;100396.28;5029687;28;20041;-71
2021/09/29 09:59:12;;;;;;;;;;;15.30;99.40;;;13.34;100.00;100400.88;5030080;28;20492;-71
2021/09/29 10:01:42;;;;;;;5.30;2.53;;;15.20;99.50;;;13.39;100.00;100403.00;5033044;28;20401;-71
2021/09/29 10:04:12;;;;;;;7.18;2.30;;;15.20;99.40;;;13.44;100.00;100403.22;5038679;28;20049;-71
2021/09/29 10:06:42;;;;;;;5.32;2.10;;;15.20;99.50;;;13.45;100.00;100413.13;5046876;28;20109;-71
2021/09/29 10:09:22;;;;;;;7.30;1.83;;;15.20;99.60;;;13.55;100.00;100412.72;5047216;28;20122;-71
2021/09/29 10:11:59;;;;;;;5.30;1.58;;;15.20;99.80;;;13.61;100.00;100411.88;5025173;28;20041;-71
2021/09/29 10:14:47;;;;;;;4.13;1.70;;;15.20;99.90;;;13.59;100.00;100414.81;5017940;28;20045;-71
2021/09/29 10:26:14;;;;;;;3.75;1.10;;;15.20;99.30;;;13.37;100.00;100426.97;5034925;28;20068;-71
2021/09/29 10:28:44;;;;;;;2.30;0.85;;;15.20;99.50;;;13.38;100.00;100428.66;5041373;28;20053;-71
2021/09/29 10:31:24;;;;;;;3.67;1.00;;;15.20;98.80;;;13.35;100.00;100429.06;5066695;22;20129;-71
2021/09/29 10:34:03;;;;;;;2.60;1.00;;;15.10;99.30;;;13.26;100.00;100437.41;5050854;28;20512;-71
2021/09/29 10:36:45;;;;;;;1.88;0.90;;;15.10;99.20;;;13.26;100.00;100429.19;5061295;28;20122;-71
2021/09/29 10:42:19;;;;;;;2.92;0.80;;;15.10;99.70;;;13.34;100.00;100432.84;5058466;28;20041;-71
2021/09/29 10:45:21;;;;;;;4.22;1.00;;;15.20;99.40;;;13.28;100.00;100446.25;5070917;28;20645;-71
2021/09/29 10:48:00;;;;;;;2.40;0.80;;;15.10;99.30;;;13.26;100.00;100447.50;5055381;28;20052;-70
2021/09/29 11:04:40;;;;;;;2.72;1.08;;;15.30;99.90;;;13.60;100.00;100449.31;5059895;28;20140;-71
2021/09/29 11:10:30;;;;;;;3.40;1.20;;;15.30;99.30;;;13.37;100.00;100457.88;5017887;28;20048;-71
2021/09/29 11:29:48;;;;;;;4.10;1.40;;;15.10;99.20;;;13.17;100.00;100465.09;5062964;28;20068;-72